Terminal Aerodrome Forecast
Issued by NWS

Home | Current Version | Previous Version | Graphics & Text | Print | Product List | Glossary On
Versions: 1 2 3 4 5 6 7 8 9 10 11 12 13 14 15 16 17 18 19 20 21 22 23 24 25 26 27 28 29 30
000
FTUS43 KLOT 172210 AAC
TAFGYY
TAF AMD
KGYY 172210Z 1722/1818 16015G20KT P6SM VCSH SCT015 OVC022
      TEMPO 1722/1724 2SM SHRA BKN015
     FM180100 18015G22KT 4SM -RA SCT007 OVC010 WS020/20050KT
     FM180500 21012KT 3SM -RA BR OVC007 WS020/21045KT
     FM180900 28009KT 2SM -DZ BR OVC004
     FM181300 35008KT 2SM -DZ BR OVC004
     FM181600 36016G26KT 3SM -RA BR BKN006 OVC015=

USA.gov is the U.S. government's official web portal to all federal, state and local government web resources and services.